Time;durP1;ratioP1;P1;durP2;ratioP2;P2;SDS_P1;SDS_P2;PMS_P1;PMS_P2;Temp;Humidity;BMP_temperature;BMP_pressure;BME280_temperature;BME280_humidity;BME280_pressure;Samples;Min_cycle;Max_cycle;Signal;HPM_P1;HPM_P2
2023/11/14 00:02:17;;;;;;;16.05;3.17;;;;;12.00;97745.00;;;;4933280;29;20059;-63
2023/11/14 00:04:43;;;;;;;19.00;3.58;;;;;12.00;97747.00;;;;4933888;29;20126;-63
2023/11/14 00:07:10;;;;;;;20.75;2.80;;;;;11.90;97745.00;;;;4934452;29;20040;-64
2023/11/14 00:09:37;;;;;;;13.05;3.03;;;;;11.90;97760.00;;;;4934303;29;20477;-63
2023/11/14 00:12:04;;;;;;;14.98;2.97;;;;;11.90;97759.00;;;;4934300;29;20050;-62
2023/11/14 00:14:32;;;;;;;10.50;2.72;;;;;11.90;97749.00;;;;4932328;29;20048;-64
2023/11/14 00:16:58;;;;;;;12.95;2.88;;;;;11.90;97755.00;;;;4934129;29;20078;-61
2023/11/14 00:19:26;;;;;;;13.70;3.00;;;;;11.90;97753.00;;;;4934354;29;20044;-61
2023/11/14 00:21:53;;;;;;;10.82;2.85;;;;;11.80;97742.00;;;;4934235;29;20048;-62
2023/11/14 00:24:19;;;;;;;12.52;2.60;;;;;11.80;97736.00;;;;4932497;29;20412;-62
2023/11/14 00:26:46;;;;;;;11.32;2.42;;;;;11.80;97742.00;;;;4934339;29;20587;-62
2023/11/14 00:29:13;;;;;;;13.32;3.38;;;;;11.80;97732.00;;;;4934082;29;20050;-62
2023/11/14 00:31:39;;;;;;;12.13;2.65;;;;;11.80;97735.00;;;;4932888;29;20051;-62
2023/11/14 00:34:06;;;;;;;12.75;2.72;;;;;11.80;97736.00;;;;4933428;29;20139;-61
2023/11/14 00:36:33;;;;;;;17.60;3.42;;;;;11.70;97731.00;;;;4934121;29;20048;-62
2023/11/14 00:39:00;;;;;;;14.20;2.75;;;;;11.70;97726.00;;;;4934082;29;20044;-61
2023/11/14 00:41:27;;;;;;;12.52;2.63;;;;;11.70;97733.00;;;;4934077;29;20053;-62
2023/11/14 00:43:53;;;;;;;12.75;2.92;;;;;11.70;97743.00;;;;4931966;29;20138;-62
2023/11/14 00:46:20;;;;;;;15.10;2.60;;;;;11.60;97743.00;;;;4932813;29;20052;-62
2023/11/14 00:48:47;;;;;;;10.90;2.85;;;;;11.60;97744.00;;;;4934200;29;20115;-62
2023/11/14 00:51:14;;;;;;;13.27;2.88;;;;;11.60;97744.00;;;;4933988;29;20047;-62
2023/11/14 00:53:40;;;;;;;13.15;2.80;;;;;11.60;97739.00;;;;4934990;29;20094;-62
2023/11/14 00:56:09;;;;;;;13.90;2.50;;;;;11.60;97735.00;;;;4936160;29;20139;-63
2023/11/14 00:58:35;;;;;;;13.40;3.45;;;;;11.60;97735.00;;;;4937373;29;20052;-63
2023/11/14 01:01:03;;;;;;;12.48;3.10;;;;;11.60;97739.00;;;;4937287;29;20051;-61
2023/11/14 01:03:30;;;;;;;12.07;3.05;;;;;11.50;97743.00;;;;4936708;29;20051;-62
2023/11/14 01:05:56;;;;;;;13.20;3.03;;;;;11.60;97751.00;;;;4936992;29;20054;-61
2023/11/14 01:08:23;;;;;;;13.73;2.80;;;;;11.50;97747.00;;;;4935832;29;20050;-61
2023/11/14 01:10:49;;;;;;;15.77;3.55;;;;;11.50;97752.00;;;;4920128;29;20047;-60
2023/11/14 01:13:16;;;;;;;10.65;3.38;;;;;11.50;97758.00;;;;4935862;29;20066;-61
2023/11/14 01:15:43;;;;;;;12.73;2.75;;;;;11.50;97760.00;;;;4919473;29;20405;-61
2023/11/14 01:18:09;;;;;;;11.70;2.97;;;;;11.50;97775.00;;;;4935748;29;20143;-61
2023/11/14 01:20:36;;;;;;;14.23;2.63;;;;;11.40;97754.00;;;;4936877;29;20047;-62
2023/11/14 01:23:03;;;;;;;11.60;2.78;;;;;11.40;97765.00;;;;4936919;29;20050;-61
2023/11/14 01:25:31;;;;;;;14.77;3.42;;;;;11.40;97760.00;;;;4935014;29;20048;-62
2023/11/14 01:27:58;;;;;;;17.80;3.42;;;;;11.40;97762.00;;;;4935628;29;20055;-61
2023/11/14 01:30:24;;;;;;;15.77;3.42;;;;;11.40;97754.00;;;;4936833;29;20035;-61
2023/11/14 01:32:51;;;;;;;11.52;2.90;;;;;11.40;97767.00;;;;4936822;29;20462;-62
2023/11/14 01:35:17;;;;;;;15.63;2.67;;;;;11.40;97755.00;;;;4936089;29;20048;-61
2023/11/14 01:37:44;;;;;;;18.02;2.90;;;;;11.40;97766.00;;;;4935540;29;20054;-62
2023/11/14 01:40:11;;;;;;;16.52;3.60;;;;;11.40;97776.00;;;;4936807;29;20095;-63
2023/11/14 01:42:38;;;;;;;18.58;3.83;;;;;11.40;97770.00;;;;4936659;29;20054;-64
2023/11/14 01:45:06;;;;;;;20.92;5.00;;;;;11.30;97770.00;;;;4935066;29;20378;-64
2023/11/14 01:47:33;;;;;;;13.10;3.60;;;;;11.40;97771.00;;;;4919767;29;20533;-64
2023/11/14 01:50:00;;;;;;;18.63;2.85;;;;;11.40;97772.00;;;;4935081;29;20074;-64
2023/11/14 01:52:28;;;;;;;18.95;3.30;;;;;11.40;97774.00;;;;4919772;29;20424;-63
2023/11/14 01:54:56;;;;;;;18.13;3.55;;;;;11.40;97784.00;;;;4934626;29;20046;-64
2023/11/14 01:57:22;;;;;;;13.88;3.25;;;;;11.40;97789.00;;;;4936525;29;20130;-63
2023/11/14 01:59:49;;;;;;;14.23;3.28;;;;;11.30;97794.00;;;;4919511;29;20501;-64
2023/11/14 02:02:17;;;;;;;15.25;3.05;;;;;11.30;97787.00;;;;4919400;29;20509;-64
2023/11/14 02:04:46;;;;;;;16.25;3.00;;;;;11.30;97788.00;;;;4934100;29;20050;-64
2023/11/14 02:07:12;;;;;;;18.00;3.30;;;;;11.30;97782.00;;;;4934954;29;20056;-64
2023/11/14 02:09:40;;;;;;;12.70;2.85;;;;;11.30;97783.00;;;;4935004;29;20425;-64
2023/11/14 02:12:07;;;;;;;18.27;3.33;;;;;11.30;97791.00;;;;4919163;29;20059;-64
2023/11/14 02:14:34;;;;;;;18.20;3.33;;;;;11.30;97797.00;;;;4934205;29;20052;-63
2023/11/14 02:17:02;;;;;;;19.23;3.20;;;;;11.30;97796.00;;;;4934803;29;20074;-63
2023/11/14 02:19:29;;;;;;;18.00;3.50;;;;;11.30;97785.00;;;;4919333;29;20047;-64
2023/11/14 02:21:55;;;;;;;12.18;2.88;;;;;11.30;97784.00;;;;4934696;29;20047;-64
2023/11/14 02:24:23;;;;;;;17.92;3.30;;;;;11.30;97782.00;;;;4934181;29;20050;-63
2023/11/14 02:26:50;;;;;;;20.63;3.67;;;;;11.30;97779.00;;;;4934720;29;20054;-64
2023/11/14 02:29:21;;;;;;;17.60;3.78;;;;;11.30;97778.00;;;;4918786;29;20044;-63
2023/11/14 02:31:48;;;;;;;16.98;3.58;;;;;11.30;97781.00;;;;4918755;29;20098;-64
2023/11/14 02:34:15;;;;;;;13.40;3.33;;;;;11.30;97766.00;;;;4933830;29;20390;-64
2023/11/14 02:36:42;;;;;;;17.48;3.28;;;;;11.30;97776.00;;;;4918897;29;20048;-64
2023/11/14 02:39:08;;;;;;;26.63;5.05;;;;;11.30;97788.00;;;;4934421;29;20071;-63
2023/11/14 02:41:35;;;;;;;16.38;3.15;;;;;11.30;97793.00;;;;4934486;29;20050;-64
2023/11/14 02:44:03;;;;;;;15.70;4.07;;;;;11.30;97797.00;;;;4934876;29;20111;-63
2023/11/14 02:46:30;;;;;;;17.10;2.97;;;;;11.30;97801.00;;;;4934514;29;20134;-64
2023/11/14 02:48:57;;;;;;;23.13;4.30;;;;;11.40;97815.00;;;;4934157;29;20051;-64
2023/11/14 02:51:23;;;;;;;17.77;3.50;;;;;11.40;97827.00;;;;4935437;29;20106;-63
2023/11/14 02:53:52;;;;;;;29.40;3.97;;;;;11.50;97842.00;;;;4937503;29;20052;-62
2023/11/14 02:56:19;;;;;;;11.82;2.75;;;;;11.50;97840.00;;;;4939449;29;20134;-62
2023/11/14 02:58:46;;;;;;;13.55;3.53;;;;;11.60;97843.00;;;;4938703;29;20139;-62
2023/11/14 03:01:13;;;;;;;11.43;3.28;;;;;11.60;97845.00;;;;4940497;29;20079;-62
2023/11/14 03:03:43;;;;;;;13.98;2.80;;;;;11.60;97848.00;;;;4937530;29;20465;-62
2023/11/14 03:06:09;;;;;;;15.20;3.22;;;;;11.60;97860.00;;;;4949389;29;20052;-63
2023/11/14 03:08:37;;;;;;;13.60;3.15;;;;;11.60;97853.00;;;;4942198;29;20095;-62
2023/11/14 03:11:03;;;;;;;17.63;3.40;;;;;11.60;97851.00;;;;4941675;29;20047;-63
2023/11/14 03:13:30;;;;;;;17.25;3.28;;;;;11.60;97854.00;;;;4938749;29;20155;-63
2023/11/14 03:15:57;;;;;;;16.95;3.15;;;;;11.60;97863.00;;;;4939361;29;20126;-62
2023/11/14 03:18:23;;;;;;;13.43;3.10;;;;;11.60;97870.00;;;;4940430;29;20150;-64
2023/11/14 03:20:50;;;;;;;12.68;3.17;;;;;11.60;97886.00;;;;4944488;29;20044;-66
2023/11/14 03:23:16;;;;;;;14.10;3.80;;;;;11.70;97890.00;;;;4949597;29;20079;-62
2023/11/14 03:25:43;;;;;;;12.13;3.50;;;;;11.70;97891.00;;;;4944040;29;20130;-62
2023/11/14 03:28:10;;;;;;;12.85;3.22;;;;;11.80;97875.00;;;;4951126;29;20043;-63
2023/11/14 03:30:36;;;;;;;14.18;3.10;;;;;11.80;97885.00;;;;4945167;29;20114;-63
2023/11/14 03:33:03;;;;;;;15.70;2.90;;;;;11.80;97890.00;;;;4952628;29;20107;-66
2023/11/14 03:35:30;;;;;;;19.85;4.50;;;;;11.90;97895.00;;;;4950614;29;20119;-63
2023/11/14 03:37:56;;;;;;;18.27;3.10;;;;;11.90;97898.00;;;;4936356;29;20432;-63
2023/11/14 03:40:23;;;;;;;18.52;3.38;;;;;12.00;97903.00;;;;4933769;29;20054;-62
2023/11/14 03:42:50;;;;;;;17.48;3.33;;;;;12.00;97904.00;;;;4935185;29;20062;-63
2023/11/14 03:45:16;;;;;;;16.58;3.40;;;;;12.00;97903.00;;;;4934385;29;20131;-66
2023/11/14 03:47:43;;;;;;;14.52;3.15;;;;;12.00;97906.00;;;;4935228;29;20378;-62
2023/11/14 03:50:09;;;;;;;13.77;3.08;;;;;12.00;97909.00;;;;4934795;29;20087;-63
2023/11/14 03:52:36;;;;;;;13.00;3.03;;;;;12.00;97914.00;;;;4934868;29;20047;-62
2023/11/14 03:55:04;;;;;;;16.15;3.08;;;;;12.00;97913.00;;;;4917245;29;20047;-63
2023/11/14 03:57:31;;;;;;;10.75;2.50;;;;;12.10;97916.00;;;;4933809;29;20413;-63
2023/11/14 03:59:57;;;;;;;12.63;3.00;;;;;12.10;97924.00;;;;4933583;29;20099;-63
2023/11/14 04:02:24;;;;;;;10.75;2.78;;;;;12.10;97924.00;;;;4934879;29;20039;-63
2023/11/14 04:04:50;;;;;;;16.83;3.53;;;;;12.10;97920.00;;;;4934425;29;20122;-63
2023/11/14 04:07:18;;;;;;;16.33;3.35;;;;;12.10;97932.00;;;;4933644;29;20044;-63
2023/11/14 04:09:45;;;;;;;7.68;2.50;;;;;12.10;97933.00;;;;4933630;29;20047;-63
2023/11/14 04:12:12;;;;;;;16.10;3.60;;;;;12.10;97937.00;;;;4933472;29;20062;-63
2023/11/14 04:14:38;;;;;;;11.48;2.53;;;;;12.10;97935.00;;;;4934086;29;20054;-63
2023/11/14 04:17:05;;;;;;;16.17;2.80;;;;;12.20;97942.00;;;;4933326;29;20083;-65
2023/11/14 04:19:33;;;;;;;16.17;2.80;;;;;12.20;97936.00;;;;4934584;29;20044;-62
2023/11/14 04:22:00;;;;;;;12.90;2.67;;;;;12.20;97932.00;;;;4934242;29;20047;-63
2023/11/14 04:24:26;;;;;;;10.93;2.72;;;;;12.20;97939.00;;;;4932822;29;20051;-63
2023/11/14 04:26:53;;;;;;;18.77;3.55;;;;;12.20;97927.00;;;;4935288;29;20075;-63
2023/11/14 04:29:19;;;;;;;13.35;3.10;;;;;12.30;97930.00;;;;4936976;29;20075;-63
2023/11/14 04:31:46;;;;;;;13.38;3.25;;;;;12.30;97926.00;;;;4938679;29;20073;-63
2023/11/14 04:34:13;;;;;;;9.93;2.67;;;;;12.30;97924.00;;;;4937505;29;20086;-63
2023/11/14 04:36:41;;;;;;;13.75;3.97;;;;;12.30;97912.00;;;;4937987;29;20052;-63
2023/11/14 04:39:10;;;;;;;13.00;2.80;;;;;12.30;97899.00;;;;4937996;29;20044;-63
2023/11/14 04:41:36;;;;;;;9.93;2.72;;;;;12.30;97912.00;;;;4920854;29;20150;-63
2023/11/14 04:44:03;;;;;;;12.05;2.50;;;;;12.30;97918.00;;;;4936110;29;20118;-62
2023/11/14 04:46:30;;;;;;;12.38;2.42;;;;;12.20;97900.00;;;;4938022;29;20095;-64
2023/11/14 04:48:56;;;;;;;17.88;3.42;;;;;12.20;97909.00;;;;4936501;29;20107;-63
2023/11/14 04:51:24;;;;;;;21.20;3.60;;;;;12.30;97901.00;;;;4937668;29;20074;-63
2023/11/14 04:53:51;;;;;;;12.30;3.03;;;;;12.20;97899.00;;;;4937130;29;20409;-62
2023/11/14 04:56:17;;;;;;;13.95;2.78;;;;;12.20;97901.00;;;;4938168;29;20400;-63
2023/11/14 04:58:44;;;;;;;8.18;2.80;;;;;12.20;97909.00;;;;4937894;29;20086;-65
2023/11/14 05:01:13;;;;;;;12.98;2.75;;;;;12.20;97913.00;;;;4936242;29;20059;-63
2023/11/14 05:03:40;;;;;;;9.98;2.75;;;;;12.20;97924.00;;;;4935463;29;20123;-63
2023/11/14 05:06:07;;;;;;;11.25;2.78;;;;;12.20;97918.00;;;;4937228;29;20055;-64
2023/11/14 05:08:33;;;;;;;14.35;2.67;;;;;12.20;97912.00;;;;4937428;29;20458;-63
2023/11/14 05:11:04;;;;;;;15.93;4.00;;;;;12.20;97913.00;;;;4937278;29;20509;-63
2023/11/14 05:13:31;;;;;;;8.55;2.35;;;;;12.20;97926.00;;;;4936698;29;20520;-63
2023/11/14 05:15:58;;;;;;;12.00;2.40;;;;;12.20;97919.00;;;;4937207;29;20044;-63
2023/11/14 05:18:32;;;;;;;14.93;2.58;;;;;12.20;97917.00;;;;4937285;29;20051;-63
2023/11/14 05:20:59;;;;;;;10.27;2.47;;;;;12.20;97899.00;;;;4937024;29;20047;-64
2023/11/14 05:23:25;;;;;;;13.10;3.13;;;;;12.20;97904.00;;;;4936499;29;20126;-63
2023/11/14 05:25:52;;;;;;;14.45;3.20;;;;;12.20;97902.00;;;;4937014;29;20047;-63
2023/11/14 05:28:18;;;;;;;14.50;3.30;;;;;12.20;97913.00;;;;4936950;29;20409;-63
2023/11/14 05:30:45;;;;;;;8.95;2.40;;;;;12.20;97919.00;;;;4936813;29;20548;-64
2023/11/14 05:33:12;;;;;;;14.88;3.42;;;;;12.20;97916.00;;;;4936830;29;20052;-64
2023/11/14 05:35:39;;;;;;;20.27;3.60;;;;;12.20;97902.00;;;;4936204;29;20062;-63
2023/11/14 05:38:05;;;;;;;18.30;3.50;;;;;12.20;97912.00;;;;4936387;29;20453;-64
2023/11/14 05:40:32;;;;;;;9.68;3.55;;;;;12.20;97915.00;;;;4936498;29;20119;-62
2023/11/14 05:43:01;;;;;;;16.88;3.70;;;;;12.20;97925.00;;;;4936652;29;20047;-61
2023/11/14 05:45:28;;;;;;;10.25;3.00;;;;;12.20;97936.00;;;;4935863;29;20048;-64
2023/11/14 05:47:54;;;;;;;12.68;3.03;;;;;12.20;97940.00;;;;4935333;29;20485;-63
2023/11/14 05:50:21;;;;;;;15.00;3.42;;;;;12.20;97942.00;;;;4935186;29;20039;-62
2023/11/14 05:52:48;;;;;;;9.18;2.58;;;;;12.20;97937.00;;;;4936474;29;20054;-64
2023/11/14 05:55:14;;;;;;;15.90;3.25;;;;;12.30;97955.00;;;;4934483;29;20048;-65
2023/11/14 05:57:41;;;;;;;19.02;3.38;;;;;12.30;97964.00;;;;4936483;29;20048;-65
2023/11/14 06:00:11;;;;;;;13.43;3.00;;;;;12.30;97947.00;;;;4936224;29;20098;-65
2023/11/14 06:02:38;;;;;;;13.98;3.00;;;;;12.30;97937.00;;;;4936378;29;20065;-65
2023/11/14 06:05:05;;;;;;;9.85;3.08;;;;;12.30;97943.00;;;;4934272;29;20052;-64
2023/11/14 06:07:32;;;;;;;8.90;2.45;;;;;12.30;97951.00;;;;4936037;29;20074;-64
2023/11/14 06:09:58;;;;;;;14.13;3.15;;;;;12.30;97947.00;;;;4936058;29;20044;-64
2023/11/14 06:12:25;;;;;;;13.00;2.70;;;;;12.30;97940.00;;;;4936220;29;20050;-64
2023/11/14 06:14:51;;;;;;;13.10;3.38;;;;;12.30;97939.00;;;;4935725;29;20050;-64
2023/11/14 06:17:18;;;;;;;12.82;2.92;;;;;12.30;97937.00;;;;4936104;29;20123;-64
2023/11/14 06:19:45;;;;;;;13.80;2.90;;;;;12.30;97956.00;;;;4935993;29;20062;-63
2023/11/14 06:22:11;;;;;;;20.42;3.75;;;;;12.30;97948.00;;;;4935933;29;20131;-64
2023/11/14 06:24:38;;;;;;;16.90;4.40;;;;;12.30;97942.00;;;;4935236;29;20556;-64
2023/11/14 06:27:04;;;;;;;11.75;2.55;;;;;12.30;97948.00;;;;4935833;29;20058;-64
2023/11/14 06:29:31;;;;;;;15.90;3.58;;;;;12.30;97950.00;;;;4935572;29;20047;-63
2023/11/14 06:31:57;;;;;;;13.13;3.35;;;;;12.30;97963.00;;;;4935804;29;20489;-64
2023/11/14 06:34:24;;;;;;;13.25;3.42;;;;;12.30;97973.00;;;;4935070;29;20118;-64
2023/11/14 06:36:50;;;;;;;9.90;2.50;;;;;12.30;97969.00;;;;4935624;29;20470;-64
2023/11/14 06:39:17;;;;;;;19.52;3.53;;;;;12.30;97976.00;;;;4935565;29;20131;-63
2023/11/14 06:41:48;;;;;;;15.25;2.78;;;;;12.30;97984.00;;;;4935588;29;20394;-64
2023/11/14 06:44:15;;;;;;;12.05;2.72;;;;;12.30;97999.00;;;;4934946;29;20051;-64
2023/11/14 06:46:41;;;;;;;13.60;3.25;;;;;12.30;97991.00;;;;4935506;29;20071;-64
2023/11/14 06:49:08;;;;;;;16.15;2.20;;;;;12.30;97993.00;;;;4935523;29;20048;-64
2023/11/14 06:51:35;;;;;;;11.20;3.20;;;;;12.30;97995.00;;;;4933197;29;20047;-64
2023/11/14 06:54:01;;;;;;;13.65;2.53;;;;;12.30;98006.00;;;;4935306;29;20556;-64
2023/11/14 06:56:28;;;;;;;13.20;3.17;;;;;12.30;98004.00;;;;4935391;29;20048;-64
2023/11/14 06:58:54;;;;;;;14.20;2.78;;;;;12.30;98002.00;;;;4933992;29;20501;-64
2023/11/14 07:01:21;;;;;;;16.33;3.00;;;;;12.30;98003.00;;;;4935281;29;20382;-64
2023/11/14 07:03:49;;;;;;;15.43;3.30;;;;;12.20;97990.00;;;;4934493;29;20042;-64
2023/11/14 07:06:18;;;;;;;19.20;2.95;;;;;12.30;97975.00;;;;4935005;29;20044;-63
2023/11/14 07:08:44;;;;;;;7.20;2.40;;;;;12.30;97981.00;;;;4935185;29;20047;-64
2023/11/14 07:11:11;;;;;;;11.75;2.70;;;;;12.30;97962.00;;;;4935306;29;20043;-64
2023/11/14 07:13:38;;;;;;;14.10;3.20;;;;;12.30;97949.00;;;;4934507;29;20663;-64
2023/11/14 07:16:05;;;;;;;11.85;2.70;;;;;12.30;97940.00;;;;4935203;29;20054;-64
2023/11/14 07:18:34;;;;;;;13.85;2.35;;;;;12.30;97949.00;;;;4934962;29;20094;-64
2023/11/14 07:21:01;;;;;;;15.27;2.85;;;;;12.30;97979.00;;;;4934957;29;20098;-64
2023/11/14 07:23:27;;;;;;;12.90;2.50;;;;;12.30;97987.00;;;;4934355;29;20050;-64
2023/11/14 07:25:54;;;;;;;15.85;2.95;;;;;12.30;97981.00;;;;4933724;29;20164;-64
2023/11/14 07:28:21;;;;;;;13.20;2.92;;;;;12.30;98001.00;;;;4934880;29;20051;-62
2023/11/14 07:30:48;;;;;;;12.55;2.45;;;;;12.30;98001.00;;;;4934983;29;20051;-64
2023/11/14 07:33:15;;;;;;;13.40;2.90;;;;;12.30;98003.00;;;;4934800;29;20453;-63
2023/11/14 07:35:42;;;;;;;11.95;3.15;;;;;12.40;98013.00;;;;4934108;29;20058;-64
2023/11/14 07:38:08;;;;;;;14.32;3.00;;;;;12.40;98011.00;;;;4934988;29;20044;-64
2023/11/14 07:40:35;;;;;;;12.45;2.53;;;;;12.40;98023.00;;;;4935003;29;20044;-62
2023/11/14 07:43:03;;;;;;;7.10;2.10;;;;;12.40;98040.00;;;;4934948;29;20050;-64
2023/11/14 07:45:29;;;;;;;6.00;2.17;;;;;12.40;98054.00;;;;4934110;29;20044;-64
2023/11/14 07:47:57;;;;;;;10.90;2.58;;;;;12.50;98062.00;;;;4934791;29;20051;-64
2023/11/14 07:50:24;;;;;;;11.73;3.05;;;;;12.50;98084.00;;;;4934749;29;20138;-64
2023/11/14 07:52:52;;;;;;;16.30;3.22;;;;;12.40;98084.00;;;;4934889;29;20047;-63
2023/11/14 07:55:19;;;;;;;11.40;2.63;;;;;12.40;98079.00;;;;4933321;29;20048;-64
2023/11/14 07:57:46;;;;;;;12.13;2.90;;;;;12.40;98050.00;;;;4935045;29;20131;-64
2023/11/14 08:00:12;;;;;;;14.50;2.63;;;;;12.40;98037.00;;;;4934603;29;20051;-64
2023/11/14 08:02:41;;;;;;;9.55;2.55;;;;;12.40;98023.00;;;;4936754;29;20077;-64
2023/11/14 08:05:08;;;;;;;10.30;2.78;;;;;12.40;98012.00;;;;4937519;29;20127;-64
2023/11/14 08:07:35;;;;;;;10.10;2.72;;;;;12.30;98000.00;;;;4938233;29;20412;-64
2023/11/14 08:10:02;;;;;;;11.63;2.88;;;;;12.30;97997.00;;;;4937122;29;20043;-64
2023/11/14 08:12:29;;;;;;;11.75;2.83;;;;;12.30;97983.00;;;;4938353;29;20049;-64
2023/11/14 08:14:55;;;;;;;13.35;3.58;;;;;12.30;97985.00;;;;4937761;29;20459;-64
2023/11/14 08:17:22;;;;;;;11.68;2.60;;;;;12.30;97941.00;;;;4939090;29;20054;-63
2023/11/14 08:19:49;;;;;;;10.98;2.95;;;;;12.40;97938.00;;;;4938368;29;20044;-64
2023/11/14 08:22:16;;;;;;;14.23;3.35;;;;;12.50;97941.00;;;;4937502;29;20080;-64
2023/11/14 08:24:43;;;;;;;10.95;3.28;;;;;12.50;97955.00;;;;4939890;29;20059;-64
2023/11/14 08:27:10;;;;;;;12.10;3.38;;;;;12.60;97971.00;;;;4942034;29;20527;-64
2023/11/14 08:29:36;;;;;;;11.25;2.67;;;;;12.60;97983.00;;;;4941037;29;20099;-64
2023/11/14 08:32:04;;;;;;;16.85;3.40;;;;;12.60;98002.00;;;;4940475;29;20392;-64
2023/11/14 08:34:31;;;;;;;14.02;3.35;;;;;12.60;98000.00;;;;4940299;29;20135;-64
2023/11/14 08:36:58;;;;;;;13.57;3.03;;;;;12.60;97986.00;;;;4941027;29;20083;-64
2023/11/14 08:39:26;;;;;;;9.95;2.78;;;;;12.70;97975.00;;;;4941088;29;20051;-62
2023/11/14 08:41:55;;;;;;;10.95;2.92;;;;;12.70;97955.00;;;;4938717;29;20068;-64
2023/11/14 08:44:23;;;;;;;12.55;2.78;;;;;12.70;97951.00;;;;4937147;29;20123;-64
2023/11/14 08:46:50;;;;;;;15.05;3.00;;;;;12.70;97966.00;;;;4937813;29;20055;-64
2023/11/14 08:49:17;;;;;;;10.07;2.30;;;;;12.70;97966.00;;;;4938002;29;20159;-64
2023/11/14 08:51:44;;;;;;;13.82;2.92;;;;;12.70;97981.00;;;;4937855;29;20046;-64
2023/11/14 08:54:11;;;;;;;14.60;2.97;;;;;12.70;97983.00;;;;4935772;29;20600;-64
2023/11/14 08:56:38;;;;;;;15.93;2.67;;;;;12.70;97973.00;;;;4937558;29;20055;-64
2023/11/14 08:59:05;;;;;;;13.95;3.42;;;;;12.70;97967.00;;;;4937386;29;20047;-63
2023/11/14 09:01:31;;;;;;;11.35;3.00;;;;;12.70;97984.00;;;;4937317;29;20048;-64
2023/11/14 09:03:58;;;;;;;10.63;2.83;;;;;12.80;97987.00;;;;4937082;29;20082;-64
2023/11/14 09:06:24;;;;;;;10.38;2.83;;;;;12.80;97971.00;;;;4937443;29;20493;-64
2023/11/14 09:08:52;;;;;;;10.95;2.60;;;;;12.90;97986.00;;;;4937844;29;20051;-64
2023/11/14 09:11:19;;;;;;;12.68;2.58;;;;;12.90;97991.00;;;;4937356;29;20082;-64
2023/11/14 09:13:47;;;;;;;9.80;2.55;;;;;12.80;97984.00;;;;4935474;29;20050;-64
2023/11/14 09:16:15;;;;;;;11.52;3.33;;;;;12.80;97977.00;;;;4937102;29;20512;-63
2023/11/14 09:18:42;;;;;;;12.85;2.60;;;;;12.90;97974.00;;;;4935947;29;20047;-64
2023/11/14 09:21:09;;;;;;;12.25;3.42;;;;;12.90;97981.00;;;;4935779;29;20471;-64
2023/11/14 09:23:36;;;;;;;7.90;2.65;;;;;13.00;97977.00;;;;4936454;29;20048;-64
2023/11/14 09:26:05;;;;;;;10.65;2.70;;;;;13.10;97977.00;;;;4935754;29;20044;-64
2023/11/14 09:28:34;;;;;;;7.80;2.28;;;;;13.30;97975.00;;;;4935702;29;20416;-64
2023/11/14 09:31:04;;;;;;;13.82;2.45;;;;;13.40;97972.00;;;;4936731;29;20055;-64
2023/11/14 09:33:32;;;;;;;10.88;2.67;;;;;13.30;97985.00;;;;4936291;29;20052;-63
2023/11/14 09:35:59;;;;;;;9.75;2.85;;;;;13.30;97999.00;;;;4936716;29;20075;-64
2023/11/14 09:38:25;;;;;;;11.00;2.95;;;;;13.10;97985.00;;;;4936822;29;20047;-64
2023/11/14 09:40:53;;;;;;;9.85;2.95;;;;;13.10;97991.00;;;;4936716;29;20532;-63
2023/11/14 09:43:23;;;;;;;10.02;2.40;;;;;13.00;97976.00;;;;4936682;29;20099;-63
2023/11/14 09:45:51;;;;;;;11.13;2.50;;;;;13.10;97975.00;;;;4936595;29;20098;-64
2023/11/14 09:48:19;;;;;;;8.88;2.80;;;;;13.20;97973.00;;;;4936682;29;20114;-64
2023/11/14 09:50:45;;;;;;;9.98;2.42;;;;;13.20;97986.00;;;;4936423;29;20095;-64
2023/11/14 09:53:12;;;;;;;10.70;2.63;;;;;13.20;97979.00;;;;4936484;29;20050;-64
2023/11/14 09:55:40;;;;;;;10.38;3.17;;;;;13.20;97990.00;;;;4935795;29;20047;-64
2023/11/14 09:58:06;;;;;;;7.72;2.45;;;;;13.20;98012.00;;;;4936412;29;20783;-64
2023/11/14 10:00:33;;;;;;;14.27;2.50;;;;;13.10;98017.00;;;;4936319;29;20040;-64
2023/11/14 10:03:02;;;;;;;7.97;2.65;;;;;13.20;98029.00;;;;4936418;29;20047;-64
2023/11/14 10:05:30;;;;;;;9.73;2.95;;;;;13.10;98037.00;;;;4934321;29;20063;-64
2023/11/14 10:07:57;;;;;;;7.53;2.10;;;;;13.10;98035.00;;;;4936109;29;20055;-63
2023/11/14 10:10:24;;;;;;;11.90;2.55;;;;;13.10;98018.00;;;;4936237;29;20051;-64
2023/11/14 10:12:52;;;;;;;10.90;3.25;;;;;13.10;98017.00;;;;4936157;29;20047;-64
2023/11/14 10:15:29;;;;;;;11.70;3.35;;;;;13.10;98024.00;;;;4935336;29;20134;-64
2023/11/14 10:17:55;;;;;;;13.10;3.63;;;;;13.10;98026.00;;;;4936161;29;20081;-64
2023/11/14 10:20:22;;;;;;;10.15;2.28;;;;;13.10;98000.00;;;;4936055;29;20126;-64
2023/11/14 10:23:03;;;;;;;9.80;2.40;;;;;13.20;98007.00;;;;4936149;29;20039;-64
2023/11/14 10:25:38;;;;;;;7.50;2.10;;;;;13.20;97995.00;;;;4935139;29;20058;-64
2023/11/14 10:28:05;;;;;;;15.30;3.22;;;;;13.20;98003.00;;;;4935821;29;20075;-64
2023/11/14 10:30:45;;;;;;;10.05;2.63;;;;;13.20;97971.00;;;;4935670;29;20087;-64
2023/11/14 10:33:13;;;;;;;10.48;2.05;;;;;13.20;97981.00;;;;4935986;29;20134;-64
2023/11/14 10:35:41;;;;;;;13.82;2.90;;;;;13.20;97970.00;;;;4935004;29;20051;-64
2023/11/14 10:38:18;;;;;;;12.77;2.83;;;;;13.30;97953.00;;;;4935684;29;20044;-64
2023/11/14 10:40:48;;;;;;;9.93;2.75;;;;;13.30;97925.00;;;;4935727;29;20044;-64
2023/11/14 10:43:36;;;;;;;10.90;2.47;;;;;13.50;97913.00;;;;4935503;29;20051;-64
2023/11/14 10:46:11;;;;;;;8.60;2.28;;;;;13.60;97919.00;;;;4935562;29;20123;-64
2023/11/14 10:48:38;;;;;;;6.25;2.20;;;;;13.70;97912.00;;;;4935614;29;20047;-64
2023/11/14 10:51:06;;;;;;;8.38;2.45;;;;;13.80;97902.00;;;;4935404;29;20585;-64
2023/11/14 10:53:33;;;;;;;8.25;2.67;;;;;13.80;97877.00;;;;4934740;29;20048;-64
2023/11/14 10:56:02;;;;;;;6.28;1.92;;;;;13.90;97879.00;;;;4935343;29;20119;-63
2023/11/14 10:58:29;;;;;;;15.10;2.88;;;;;14.10;97885.00;;;;4935239;29;20066;-64
2023/11/14 11:00:57;;;;;;;7.80;2.20;;;;;14.30;97881.00;;;;4935356;29;20051;-64
2023/11/14 11:03:24;;;;;;;9.43;2.00;;;;;14.40;97865.00;;;;4934885;29;20048;-64
2023/11/14 11:05:51;;;;;;;8.32;2.30;;;;;14.60;97883.00;;;;4935037;29;20613;-64
2023/11/14 11:08:18;;;;;;;6.63;2.03;;;;;14.60;97854.00;;;;4935221;29;20047;-64
2023/11/14 11:10:45;;;;;;;8.88;2.35;;;;;14.60;97836.00;;;;4918207;29;20048;-64
2023/11/14 11:13:21;;;;;;;7.82;2.70;;;;;14.60;97855.00;;;;4934933;29;20131;-64
2023/11/14 11:15:49;;;;;;;9.57;2.58;;;;;14.60;97851.00;;;;4933353;29;20492;-64
2023/11/14 11:18:24;;;;;;;7.72;2.45;;;;;14.60;97858.00;;;;4935058;29;20070;-65
2023/11/14 11:20:50;;;;;;;6.40;2.10;;;;;14.60;97850.00;;;;4933752;29;20058;-64
2023/11/14 11:23:18;;;;;;;9.18;2.50;;;;;14.50;97844.00;;;;4935148;29;20107;-63
2023/11/14 11:25:47;;;;;;;8.55;2.47;;;;;14.50;97855.00;;;;4934613;29;20070;-64
2023/11/14 11:28:20;;;;;;;8.77;2.50;;;;;14.40;97844.00;;;;4933567;29;20051;-64
2023/11/14 11:31:06;;;;;;;6.90;2.30;;;;;14.40;97853.00;;;;4934751;29;20054;-64
2023/11/14 11:33:37;;;;;;;8.18;2.55;;;;;14.20;97858.00;;;;4934279;29;20098;-65
2023/11/14 11:36:26;;;;;;;8.13;2.60;;;;;14.30;97844.00;;;;4934673;29;20052;-64
2023/11/14 11:39:00;;;;;;;5.13;1.92;;;;;14.20;97839.00;;;;4935279;29;20058;-64
2023/11/14 11:41:34;;;;;;;7.13;2.25;;;;;14.20;97837.00;;;;4934980;29;20465;-65
2023/11/14 11:44:08;;;;;;;6.32;2.20;;;;;14.20;97832.00;;;;4934067;29;20130;-64
2023/11/14 11:46:40;;;;;;;7.35;2.58;;;;;14.20;97835.00;;;;4934706;29;20078;-65
2023/11/14 11:49:10;;;;;;;8.80;2.17;;;;;14.20;97801.00;;;;4934713;29;20540;-63
2023/11/14 11:51:43;;;;;;;5.68;1.90;;;;;14.30;97809.00;;;;4934716;29;20548;-63
2023/11/14 11:54:28;;;;;;;6.05;1.88;;;;;14.30;97799.00;;;;4933997;29;20408;-64
2023/11/14 11:57:07;;;;;;;9.52;2.65;;;;;14.40;97797.00;;;;4934616;29;20428;-63
2023/11/14 11:59:54;;;;;;;5.35;1.90;;;;;14.40;97801.00;;;;4933438;29;20052;-65
2023/11/14 12:02:26;;;;;;;6.82;3.03;;;;;14.50;97787.00;;;;4933837;29;20167;-64
2023/11/14 12:04:55;;;;;;;8.60;2.80;;;;;14.50;97796.00;;;;4933961;29;20052;-64
2023/11/14 12:07:23;;;;;;;7.22;2.05;;;;;14.50;97791.00;;;;4934383;29;20099;-62
2023/11/14 12:09:51;;;;;;;6.55;2.30;;;;;14.50;97798.00;;;;4933286;29;20047;-62
2023/11/14 12:12:17;;;;;;;10.20;2.92;;;;;14.50;97791.00;;;;4934343;29;20046;-62
2023/11/14 12:14:45;;;;;;;8.88;2.50;;;;;14.40;97790.00;;;;4933646;29;20079;-64